createdAt,value
2022-08-29T00:02:19.649Z,22.20
2022-08-29T00:04:47.546Z,22.50
2022-08-29T00:07:16.764Z,22.00
2022-08-29T00:09:44.644Z,22.00
2022-08-29T00:12:12.550Z,21.60
2022-08-29T00:14:40.459Z,21.70
2022-08-29T00:17:08.334Z,21.70
2022-08-29T00:19:36.244Z,22.30
2022-08-29T00:22:04.096Z,22.20
2022-08-29T00:24:33.327Z,22.30
2022-08-29T00:27:01.927Z,22.30
2022-08-29T00:29:29.820Z,22.50
2022-08-29T00:31:57.767Z,22.30
2022-08-29T00:34:25.691Z,22.30
2022-08-29T00:36:55.114Z,22.70
2022-08-29T00:39:23.153Z,22.80
2022-08-29T00:41:53.004Z,23.10
2022-08-29T00:44:20.935Z,23.10
2022-08-29T00:46:50.599Z,23.10
2022-08-29T00:49:26.606Z,23.10
2022-08-29T00:51:54.450Z,22.70
2022-08-29T00:54:22.363Z,22.70
2022-08-29T00:56:50.197Z,23.00
2022-08-29T00:59:20.501Z,23.00
2022-08-29T01:01:48.407Z,23.00
2022-08-29T01:04:23.853Z,23.20
2022-08-29T01:06:52.247Z,23.40
2022-08-29T01:09:21.023Z,23.20
2022-08-29T01:12:06.275Z,23.30
2022-08-29T01:14:38.359Z,23.30
2022-08-29T01:17:07.237Z,23.00
2022-08-29T01:19:40.579Z,23.00
2022-08-29T01:22:11.115Z,23.00
2022-08-29T01:24:41.282Z,22.80
2022-08-29T01:27:09.248Z,22.80
2022-08-29T01:29:37.246Z,22.30
2022-08-29T01:32:05.539Z,22.20
2022-08-29T01:34:33.469Z,21.90
2022-08-29T01:37:01.787Z,22.00
2022-08-29T01:39:30.497Z,22.10
2022-08-29T01:42:00.147Z,21.80
2022-08-29T01:44:28.034Z,22.00
2022-08-29T01:47:01.824Z,21.80
2022-08-29T01:49:31.311Z,21.80
2022-08-29T01:51:59.194Z,21.60
2022-08-29T01:54:27.100Z,21.70
2022-08-29T01:56:55.068Z,21.70
2022-08-29T01:59:25.534Z,21.60
2022-08-29T02:01:55.434Z,21.50
2022-08-29T02:04:23.528Z,21.50
2022-08-29T02:06:51.766Z,21.30
2022-08-29T02:09:19.657Z,21.20
2022-08-29T02:11:48.294Z,21.10
2022-08-29T02:14:18.978Z,21.30
2022-08-29T02:16:49.103Z,21.40
2022-08-29T02:19:17.210Z,20.80
2022-08-29T02:21:45.100Z,20.50
2022-08-29T02:24:26.572Z,21.00
2022-08-29T02:26:54.603Z,21.30
2022-08-29T02:29:23.171Z,21.10
2022-08-29T02:31:52.468Z,21.00
2022-08-29T02:34:20.580Z,21.00
2022-08-29T02:36:49.070Z,21.30
2022-08-29T02:39:17.398Z,21.00
2022-08-29T02:41:45.292Z,20.60
2022-08-29T02:44:13.195Z,20.60
2022-08-29T02:46:41.071Z,20.50
2022-08-29T02:49:10.404Z,20.50
2022-08-29T02:51:38.278Z,20.60
2022-08-29T02:54:06.207Z,20.80
2022-08-29T02:56:34.081Z,20.90
2022-08-29T02:59:02.157Z,21.00
2022-08-29T03:01:31.284Z,20.60
2022-08-29T03:03:59.312Z,20.30
2022-08-29T03:06:28.543Z,20.10
2022-08-29T03:08:56.613Z,20.30
2022-08-29T03:11:24.754Z,20.40
2022-08-29T03:13:52.613Z,20.30
2022-08-29T03:16:25.640Z,20.60
2022-08-29T03:18:53.561Z,20.70
2022-08-29T03:21:23.122Z,20.50
2022-08-29T03:23:52.359Z,20.60
2022-08-29T03:26:20.425Z,20.50
2022-08-29T03:28:48.293Z,20.70
2022-08-29T03:31:16.258Z,20.70
2022-08-29T03:33:44.194Z,20.80
2022-08-29T03:36:14.272Z,20.70
2022-08-29T03:38:43.465Z,20.50
2022-08-29T03:41:12.770Z,20.70
2022-08-29T03:43:40.669Z,20.70
2022-08-29T03:46:08.552Z,20.50
2022-08-29T03:48:36.455Z,20.30
2022-08-29T03:51:04.387Z,19.60
2022-08-29T03:53:32.955Z,20.20
2022-08-29T03:56:00.864Z,20.30
2022-08-29T03:58:30.120Z,20.50
2022-08-29T04:00:58.947Z,20.50
2022-08-29T04:03:31.355Z,19.80
2022-08-29T04:05:59.675Z,19.40
2022-08-29T04:08:27.576Z,19.60
2022-08-29T04:10:55.470Z,19.70
2022-08-29T04:13:23.409Z,20.10
2022-08-29T04:15:53.604Z,20.30
2022-08-29T04:18:22.397Z,20.30
2022-08-29T04:20:50.837Z,20.00
2022-08-29T04:23:18.763Z,20.10
2022-08-29T04:25:46.725Z,20.20
2022-08-29T04:28:14.897Z,20.20
2022-08-29T04:30:51.198Z,20.10
2022-08-29T04:33:22.838Z,19.90
2022-08-29T04:35:50.983Z,19.90
2022-08-29T04:38:18.857Z,19.90
2022-08-29T04:40:46.759Z,20.00
2022-08-29T04:43:14.933Z,20.00
2022-08-29T04:45:42.838Z,19.40
2022-08-29T04:48:11.046Z,19.40
2022-08-29T04:50:40.428Z,19.40
2022-08-29T04:53:08.269Z,19.70
2022-08-29T04:55:36.138Z,19.80
2022-08-29T04:58:04.541Z,19.50
2022-08-29T05:00:33.319Z,19.50
2022-08-29T05:03:01.279Z,19.80
2022-08-29T05:05:29.198Z,19.50
2022-08-29T05:07:58.456Z,19.50
2022-08-29T05:10:26.471Z,19.50
2022-08-29T05:12:54.415Z,19.60
2022-08-29T05:15:22.436Z,19.60
2022-08-29T05:17:50.396Z,19.70
2022-08-29T05:20:18.283Z,19.70
2022-08-29T05:22:46.154Z,19.80
2022-08-29T05:25:18.198Z,19.70
2022-08-29T05:27:46.650Z,19.50
2022-08-29T05:30:19.932Z,19.50
2022-08-29T05:33:03.236Z,19.40
2022-08-29T05:35:31.113Z,19.60
2022-08-29T05:37:58.974Z,19.70
2022-08-29T05:40:28.743Z,19.50
2022-08-29T05:42:56.663Z,19.60
2022-08-29T05:45:24.554Z,19.70
2022-08-29T05:47:52.436Z,20.10
2022-08-29T05:50:20.381Z,20.40
2022-08-29T05:52:48.285Z,20.90
2022-08-29T05:55:16.244Z,20.90
2022-08-29T05:57:45.847Z,20.80
2022-08-29T06:00:14.111Z,20.90
2022-08-29T06:02:43.874Z,21.30
2022-08-29T06:05:12.101Z,21.40
2022-08-29T06:07:39.963Z,21.50
2022-08-29T06:10:08.994Z,21.70
2022-08-29T06:12:37.614Z,22.00
2022-08-29T06:15:07.859Z,22.20
2022-08-29T06:17:35.866Z,22.40
2022-08-29T06:20:04.354Z,22.70
2022-08-29T06:22:32.240Z,22.50
2022-08-29T06:25:21.798Z,22.80
2022-08-29T06:27:54.368Z,22.90
2022-08-29T06:30:23.663Z,23.10
2022-08-29T06:32:51.560Z,23.10
2022-08-29T06:35:19.626Z,23.30
2022-08-29T06:37:47.685Z,23.40
2022-08-29T06:40:15.933Z,23.20
2022-08-29T06:42:44.025Z,23.30
2022-08-29T06:45:15.315Z,23.50
2022-08-29T06:47:49.567Z,23.50
2022-08-29T06:50:23.362Z,23.50
2022-08-29T06:53:05.425Z,23.80
2022-08-29T06:55:43.997Z,23.70
2022-08-29T06:58:12.870Z,23.90
2022-08-29T07:00:41.218Z,24.30
2022-08-29T07:03:10.679Z,24.00
2022-08-29T07:05:38.667Z,24.50
2022-08-29T07:08:06.541Z,24.80
2022-08-29T07:10:34.455Z,24.80
2022-08-29T07:13:02.306Z,24.90
2022-08-29T07:15:30.261Z,24.10
2022-08-29T07:18:00.127Z,24.80
2022-08-29T07:20:29.537Z,24.80
2022-08-29T07:22:57.799Z,25.00
2022-08-29T07:25:27.682Z,24.70
2022-08-29T07:27:55.551Z,25.30
2022-08-29T07:30:23.575Z,26.10
2022-08-29T07:32:51.480Z,25.20
2022-08-29T07:35:29.589Z,24.80
2022-08-29T07:38:01.165Z,25.50
2022-08-29T07:40:29.210Z,25.80
2022-08-29T07:42:57.194Z,26.00
2022-08-29T07:45:25.149Z,26.20
2022-08-29T07:47:53.110Z,26.30
2022-08-29T07:50:21.017Z,26.60
2022-08-29T07:52:48.898Z,26.90
2022-08-29T07:55:18.169Z,25.90
2022-08-29T07:57:48.460Z,26.30
2022-08-29T08:00:16.437Z,26.60
2022-08-29T08:02:44.335Z,26.90
2022-08-29T08:05:12.256Z,27.30
2022-08-29T08:07:40.427Z,27.10
2022-08-29T08:10:09.177Z,27.20
2022-08-29T08:12:38.415Z,27.40
2022-08-29T08:15:06.843Z,27.30
2022-08-29T08:17:34.696Z,27.50
2022-08-29T08:20:02.908Z,27.70
2022-08-29T08:22:30.774Z,27.80
2022-08-29T08:24:58.684Z,28.00
2022-08-29T08:27:26.562Z,28.10
2022-08-29T08:29:59.890Z,27.90
2022-08-29T08:32:32.556Z,27.20
2022-08-29T08:35:01.812Z,27.60
2022-08-29T08:37:29.687Z,27.90
2022-08-29T08:39:58.274Z,28.40
2022-08-29T08:42:29.298Z,29.00
2022-08-29T08:45:05.711Z,28.40
2022-08-29T08:47:34.130Z,28.70
2022-08-29T08:50:02.517Z,28.90
2022-08-29T08:52:32.952Z,28.60
2022-08-29T08:55:03.055Z,28.40
2022-08-29T08:57:31.366Z,29.20
2022-08-29T08:59:59.625Z,29.10
2022-08-29T09:02:42.971Z,28.00
2022-08-29T09:05:19.613Z,28.90
2022-08-29T09:07:49.448Z,28.90
2022-08-29T09:10:19.940Z,29.30
2022-08-29T09:12:51.592Z,29.00
2022-08-29T09:15:20.872Z,29.30
2022-08-29T09:17:51.091Z,29.80
2022-08-29T09:20:19.871Z,29.80
2022-08-29T09:22:51.008Z,29.60
2022-08-29T09:25:18.876Z,30.00
2022-08-29T09:27:49.865Z,30.40
2022-08-29T09:30:18.669Z,30.60
2022-08-29T09:32:54.399Z,30.50
2022-08-29T09:35:24.457Z,30.80
2022-08-29T09:38:02.371Z,30.70
2022-08-29T09:40:44.021Z,30.80
2022-08-29T09:43:16.761Z,30.70
2022-08-29T09:45:47.185Z,30.90
2022-08-29T09:48:17.485Z,31.00
2022-08-29T09:50:45.542Z,31.10
2022-08-29T09:53:16.631Z,30.60
2022-08-29T09:55:52.776Z,30.80
2022-08-29T09:58:27.928Z,31.60
2022-08-29T10:01:00.350Z,31.20
2022-08-29T10:03:30.109Z,31.20
2022-08-29T10:06:06.356Z,30.60
2022-08-29T10:08:35.993Z,30.90
2022-08-29T10:11:06.289Z,30.80
2022-08-29T10:13:39.387Z,30.30
2022-08-29T10:16:10.387Z,30.30
2022-08-29T10:18:43.062Z,31.30
2022-08-29T10:21:17.744Z,31.80
2022-08-29T10:23:49.250Z,31.60
2022-08-29T10:26:21.802Z,31.10
2022-08-29T10:28:51.659Z,30.70
2022-08-29T10:31:20.933Z,31.30
2022-08-29T10:34:06.790Z,32.10
2022-08-29T10:36:36.688Z,32.30
2022-08-29T10:39:07.160Z,31.30
2022-08-29T10:41:35.619Z,30.70
2022-08-29T10:44:08.563Z,31.80
2022-08-29T10:46:40.398Z,32.40
2022-08-29T10:49:09.676Z,32.30
2022-08-29T10:51:40.309Z,31.50
2022-08-29T10:54:11.420Z,32.20
2022-08-29T10:56:40.382Z,32.00
2022-08-29T10:59:08.971Z,32.80
2022-08-29T11:01:38.168Z,32.50
2022-08-29T11:04:08.028Z,32.00
2022-08-29T11:09:08.723Z,32.80
2022-08-29T11:11:37.528Z,33.30
2022-08-29T11:14:06.548Z,33.60
2022-08-29T11:16:35.798Z,31.90
2022-08-29T11:19:04.186Z,33.20
2022-08-29T11:21:33.511Z,33.30
2022-08-29T11:24:05.936Z,33.40
2022-08-29T11:26:42.239Z,33.60
2022-08-29T11:29:13.613Z,32.30
2022-08-29T11:31:44.589Z,31.30
2022-08-29T11:34:18.810Z,33.20
2022-08-29T11:36:50.462Z,31.30
2022-08-29T11:39:31.063Z,33.00
2022-08-29T11:42:03.850Z,32.80
2022-08-29T11:44:32.678Z,32.30
2022-08-29T11:47:00.704Z,32.80
2022-08-29T11:49:45.364Z,33.60
2022-08-29T11:52:17.706Z,33.50
2022-08-29T11:55:09.926Z,33.20
2022-08-29T11:57:51.184Z,33.30
2022-08-29T12:00:29.877Z,33.80
2022-08-29T12:02:57.775Z,33.40
2022-08-29T12:05:43.439Z,32.30
2022-08-29T12:08:35.478Z,32.50
2022-08-29T12:11:01.597Z,33.80
2022-08-29T12:13:48.246Z,34.60
2022-08-29T12:16:17.906Z,34.20
2022-08-29T12:18:46.762Z,34.30
2022-08-29T12:21:33.456Z,34.00
2022-08-29T12:24:01.349Z,34.30
2022-08-29T12:26:38.835Z,34.60
2022-08-29T12:29:10.185Z,35.10
2022-08-29T12:31:51.664Z,34.80
2022-08-29T12:34:30.374Z,33.90
2022-08-29T12:37:02.643Z,34.60
2022-08-29T12:39:36.873Z,34.50
2022-08-29T12:42:16.913Z,33.30
2022-08-29T12:44:45.291Z,34.10
2022-08-29T12:47:15.818Z,33.90
2022-08-29T12:49:48.502Z,34.80
2022-08-29T12:52:21.599Z,35.00
2022-08-29T12:54:53.184Z,34.30
2022-08-29T12:57:24.674Z,33.10
2022-08-29T12:59:53.761Z,32.20
2022-08-29T13:02:28.122Z,32.10
2022-08-29T13:04:56.417Z,33.10
2022-08-29T13:07:24.736Z,33.30
2022-08-29T13:09:53.193Z,34.40
2022-08-29T13:12:22.705Z,34.20
2022-08-29T13:14:51.671Z,32.00
2022-08-29T13:17:20.541Z,33.50
2022-08-29T13:20:07.156Z,34.00
2022-08-29T13:22:36.478Z,34.70
2022-08-29T13:25:04.788Z,34.90
2022-08-29T13:27:32.663Z,34.50
2022-08-29T13:30:00.713Z,34.90
2022-08-29T13:32:28.561Z,34.30
2022-08-29T13:34:59.957Z,33.90
2022-08-29T13:37:31.907Z,34.10
2022-08-29T13:40:01.279Z,33.20
2022-08-29T13:42:30.188Z,34.20
2022-08-29T13:45:09.182Z,34.70
2022-08-29T13:47:41.515Z,34.90
2022-08-29T13:50:10.155Z,34.70
2022-08-29T13:52:38.209Z,34.70
2022-08-29T13:55:08.177Z,34.40
2022-08-29T13:57:36.090Z,34.70
2022-08-29T14:00:05.589Z,34.70
2022-08-29T14:02:33.838Z,34.80
2022-08-29T14:05:01.875Z,34.20
2022-08-29T14:07:31.113Z,34.30
2022-08-29T14:09:59.079Z,35.00
2022-08-29T14:12:33.756Z,34.80
2022-08-29T14:15:05.276Z,34.90
2022-08-29T14:17:36.832Z,35.00
2022-08-29T14:20:06.207Z,34.80
2022-08-29T14:22:34.106Z,35.40
2022-08-29T14:25:02.982Z,34.60
2022-08-29T14:27:32.293Z,34.10
2022-08-29T14:30:00.569Z,34.50
2022-08-29T14:32:28.499Z,34.40
2022-08-29T14:34:56.427Z,34.30
2022-08-29T14:37:24.540Z,34.20
2022-08-29T14:39:52.404Z,34.40
2022-08-29T14:42:20.861Z,34.70
2022-08-29T14:44:50.155Z,34.70
2022-08-29T14:47:17.997Z,34.20
2022-08-29T14:49:45.896Z,34.40
2022-08-29T14:52:15.226Z,34.00
2022-08-29T14:54:43.696Z,34.00
2022-08-29T14:57:12.364Z,33.60
2022-08-29T14:59:40.638Z,34.20
2022-08-29T15:02:10.286Z,34.30
2022-08-29T15:04:38.274Z,33.20
2022-08-29T15:07:06.160Z,33.90
2022-08-29T15:09:34.104Z,34.10
2022-08-29T15:12:01.976Z,33.80
2022-08-29T15:14:29.914Z,32.50
2022-08-29T15:16:57.802Z,33.40
2022-08-29T15:22:14.942Z,33.90
2022-08-29T15:24:42.836Z,34.20
2022-08-29T15:27:10.693Z,33.80
2022-08-29T15:29:40.593Z,33.90
2022-08-29T15:32:08.492Z,32.80
2022-08-29T15:34:37.858Z,33.10
2022-08-29T15:37:05.811Z,31.80
2022-08-29T15:39:33.803Z,33.20
2022-08-29T15:42:02.632Z,33.30
2022-08-29T15:44:30.513Z,32.40
2022-08-29T15:46:58.511Z,33.40
2022-08-29T15:49:26.474Z,33.80
2022-08-29T15:51:55.694Z,34.10
2022-08-29T15:54:23.829Z,33.60
2022-08-29T15:56:51.745Z,33.90
2022-08-29T15:59:30.963Z,33.30
2022-08-29T16:02:10.254Z,32.80
2022-08-29T16:04:38.398Z,33.30
2022-08-29T16:07:07.685Z,33.80
2022-08-29T16:09:35.656Z,34.10
2022-08-29T16:12:03.654Z,33.70
2022-08-29T16:14:58.974Z,33.40
2022-08-29T16:17:19.378Z,33.50
2022-08-29T16:19:47.260Z,33.00
2022-08-29T16:22:16.514Z,33.50
2022-08-29T16:24:44.382Z,32.90
2022-08-29T16:27:12.221Z,33.10
2022-08-29T16:29:40.137Z,33.30
2022-08-29T16:32:09.003Z,32.90
2022-08-29T16:34:36.899Z,33.20
2022-08-29T16:37:04.765Z,32.50
2022-08-29T16:39:34.046Z,32.80
2022-08-29T16:42:01.917Z,33.30
2022-08-29T16:44:31.799Z,31.70
2022-08-29T16:46:59.659Z,32.00
2022-08-29T16:49:27.554Z,32.10
2022-08-29T16:51:55.426Z,32.80
2022-08-29T16:54:23.336Z,32.30
2022-08-29T16:56:52.862Z,32.40
2022-08-29T16:59:20.792Z,32.60
2022-08-29T17:01:49.343Z,32.60
2022-08-29T17:04:18.513Z,32.50
2022-08-29T17:06:48.084Z,31.80
2022-08-29T17:09:14.956Z,31.90
2022-08-29T17:11:41.697Z,32.20
2022-08-29T17:14:09.953Z,32.00
2022-08-29T17:16:37.933Z,32.30
2022-08-29T17:19:06.453Z,32.40
2022-08-29T17:21:34.361Z,31.80
2022-08-29T17:24:03.387Z,32.00
2022-08-29T17:26:31.310Z,32.10
2022-08-29T17:28:59.259Z,32.20
2022-08-29T17:31:28.576Z,32.30
2022-08-29T17:33:57.053Z,32.10
2022-08-29T17:36:25.038Z,32.10
2022-08-29T17:38:52.930Z,31.60
2022-08-29T17:41:21.210Z,31.50
2022-08-29T17:43:49.909Z,31.70
2022-08-29T17:46:18.455Z,31.70
2022-08-29T17:48:47.776Z,31.30
2022-08-29T17:51:16.014Z,31.30
2022-08-29T17:53:45.795Z,31.30
2022-08-29T17:56:14.550Z,31.20
2022-08-29T17:58:42.452Z,30.70
2022-08-29T18:01:15.891Z,30.60
2022-08-29T18:03:44.817Z,30.40
2022-08-29T18:06:14.997Z,30.60
2022-08-29T18:08:46.944Z,30.20
2022-08-29T18:11:20.265Z,30.10
2022-08-29T18:13:48.308Z,30.10
2022-08-29T18:16:16.281Z,30.00
2022-08-29T18:18:44.424Z,30.10
2022-08-29T18:21:16.455Z,30.10
2022-08-29T18:23:47.502Z,29.20
2022-08-29T18:26:15.446Z,28.90
2022-08-29T18:28:43.323Z,28.80
2022-08-29T18:31:11.803Z,29.30
2022-08-29T18:33:59.973Z,29.00
2022-08-29T18:36:28.924Z,29.20
2022-08-29T18:39:01.263Z,29.10
2022-08-29T18:41:29.722Z,28.80
2022-08-29T18:43:59.010Z,28.30
2022-08-29T18:46:26.968Z,28.30
2022-08-29T18:48:55.573Z,28.50
2022-08-29T18:51:23.438Z,28.20
2022-08-29T18:53:51.344Z,27.70
2022-08-29T18:56:20.959Z,27.70
2022-08-29T18:58:54.684Z,27.60
2022-08-29T19:01:28.346Z,27.70
2022-08-29T19:03:56.805Z,27.90
2022-08-29T19:06:25.806Z,27.70
2022-08-29T19:08:53.970Z,28.30
2022-08-29T19:11:23.290Z,28.20
2022-08-29T19:13:52.386Z,28.20
2022-08-29T19:16:20.946Z,27.60
2022-08-29T19:18:48.894Z,27.80
2022-08-29T19:21:15.789Z,27.60
2022-08-29T19:23:45.481Z,27.20
2022-08-29T19:26:14.265Z,27.20
2022-08-29T19:28:43.547Z,27.40
2022-08-29T19:31:11.489Z,26.90
2022-08-29T19:33:46.018Z,26.50
2022-08-29T19:36:13.972Z,26.30
2022-08-29T19:38:42.343Z,26.50
2022-08-29T19:41:10.392Z,26.60
2022-08-29T19:43:40.245Z,26.40
2022-08-29T19:46:11.215Z,26.20
2022-08-29T19:48:42.505Z,26.10
2022-08-29T19:51:10.730Z,25.60
2022-08-29T19:53:41.712Z,26.10
2022-08-29T19:56:09.675Z,26.30
2022-08-29T19:58:38.596Z,26.10
2022-08-29T20:01:07.148Z,26.10
2022-08-29T20:03:37.158Z,26.50
2022-08-29T20:06:06.992Z,26.60
2022-08-29T20:08:36.885Z,26.30
2022-08-29T20:11:06.542Z,26.10
2022-08-29T20:13:35.828Z,25.70
2022-08-29T20:16:12.152Z,25.60
2022-08-29T20:18:42.048Z,25.50
2022-08-29T20:21:10.440Z,25.10
2022-08-29T20:23:38.934Z,25.50
2022-08-29T20:26:15.153Z,25.60
2022-08-29T20:28:43.088Z,25.40
2022-08-29T20:31:10.993Z,25.00
2022-08-29T20:33:41.346Z,25.20
2022-08-29T20:36:28.709Z,25.10
2022-08-29T20:38:56.639Z,25.20
2022-08-29T20:41:24.513Z,25.70
2022-08-29T20:43:52.411Z,25.30
2022-08-29T20:46:20.348Z,25.50
2022-08-29T20:48:48.329Z,25.80
2022-08-29T20:51:17.566Z,25.70
2022-08-29T20:53:45.539Z,25.60
2022-08-29T20:56:13.419Z,25.50
2022-08-29T20:58:41.476Z,25.30
2022-08-29T21:01:09.442Z,25.00
2022-08-29T21:03:54.953Z,25.20
2022-08-29T21:06:24.181Z,25.20
2022-08-29T21:08:52.641Z,25.20
2022-08-29T21:11:20.793Z,25.10
2022-08-29T21:13:53.011Z,25.60
2022-08-29T21:16:21.388Z,24.70
2022-08-29T21:18:51.219Z,24.80
2022-08-29T21:21:21.949Z,24.90
2022-08-29T21:23:53.402Z,25.30
2022-08-29T21:26:21.458Z,25.30
2022-08-29T21:28:49.342Z,25.50
2022-08-29T21:31:17.306Z,25.50
2022-08-29T21:33:45.621Z,25.40
2022-08-29T21:36:13.601Z,25.20
2022-08-29T21:38:41.845Z,25.10
2022-08-29T21:41:12.000Z,25.30
2022-08-29T21:43:40.032Z,25.50
2022-08-29T21:46:14.483Z,25.50
2022-08-29T21:48:42.412Z,25.40
2022-08-29T21:51:10.339Z,25.60
2022-08-29T21:53:40.471Z,25.50
2022-08-29T21:56:10.974Z,25.90
2022-08-29T21:58:38.895Z,25.80
2022-08-29T22:01:06.948Z,25.60
2022-08-29T22:03:34.830Z,25.70
2022-08-29T22:06:04.312Z,25.60
2022-08-29T22:08:32.246Z,25.80
2022-08-29T22:11:00.714Z,25.60
2022-08-29T22:13:32.574Z,25.60
2022-08-29T22:16:18.118Z,25.60
2022-08-29T22:18:49.311Z,26.10
2022-08-29T22:21:17.556Z,26.20
2022-08-29T22:23:45.673Z,26.00
2022-08-29T22:26:13.687Z,25.80
2022-08-29T22:28:43.464Z,25.80
2022-08-29T22:31:11.403Z,26.00
2022-08-29T22:33:39.610Z,25.70
2022-08-29T22:36:07.590Z,25.60
2022-08-29T22:38:35.484Z,25.80
2022-08-29T22:41:03.391Z,25.80
2022-08-29T22:43:31.560Z,25.50
2022-08-29T22:46:01.006Z,25.60
2022-08-29T22:48:28.968Z,25.70
2022-08-29T22:50:58.212Z,25.80
2022-08-29T22:53:26.460Z,25.90
2022-08-29T22:55:54.468Z,25.70
2022-08-29T22:58:22.325Z,25.70
2022-08-29T23:00:50.239Z,25.70
2022-08-29T23:03:20.015Z,25.50
2022-08-29T23:05:48.259Z,25.30
2022-08-29T23:08:17.161Z,25.30
2022-08-29T23:10:49.118Z,25.50
2022-08-29T23:13:17.571Z,25.50
2022-08-29T23:15:48.356Z,25.50
2022-08-29T23:18:17.836Z,25.40
2022-08-29T23:20:47.172Z,25.50
2022-08-29T23:23:15.148Z,25.40
2022-08-29T23:25:43.310Z,25.20
2022-08-29T23:28:11.292Z,25.40
2022-08-29T23:30:39.245Z,25.00
2022-08-29T23:33:07.097Z,25.10
2022-08-29T23:35:36.978Z,24.90
2022-08-29T23:38:07.879Z,25.00
2022-08-29T23:40:36.012Z,25.10
2022-08-29T23:43:04.778Z,25.10
2022-08-29T23:45:32.727Z,25.00
2022-08-29T23:48:00.605Z,24.60
2022-08-29T23:50:28.539Z,24.70
2022-08-29T23:52:56.391Z,25.10
2022-08-29T23:55:25.765Z,24.80
2022-08-29T23:57:53.714Z,24.60
